Flight Track Log - Related Links

Times and Time Zones

All times are in EDT time to prevent confusion due to time zone crossing. See the FDX1254 flight status page for this flight to view local times or setup timezone preferences in your user account.

Time Position Orientation Groundspeed Altitude Reporting Facility
EDT Latitude Longitude Course Direction KTS MPH feet Rate Location/Type
Wed 09:00:36 PM 41.7144 -71.4361 299° West 136 157 700  Level Boston Center
Wed 09:05:52 PM 41.8920 -71.8630 299° West 328 377 15,300 2,825 Climbing FlightAware ADS-B
Wed 09:06:37 PM 41.9260 -71.9530 297° West 337 388 17,700 3,035 Climbing FlightAware ADS-B
Wed 09:07:17 PM 41.9520 -72.0230 297° West 344 396 19,600 1,958 Climbing FlightAware ADS-B
Wed 09:08:12 PM 41.9900 -72.1240 297° West 348 400 20,800 2,323 Climbing FlightAware ADS-B
Wed 09:08:47 PM 42.0170 -72.1960 297° West 23,000 2,880 Climbing FlightAware ADS-B
Wed 09:09:52 PM 42.0670 -72.3320 296° West 367 422 25,600 2,348 Climbing FlightAware ADS-B
Wed 09:10:42 PM 42.1070 -72.4420 296° West 371 427 27,500 1,855 Climbing FlightAware ADS-B
Wed 09:11:42 PM 42.1530 -72.5660 297° West 389 448 29,000 1,257 Climbing FlightAware ADS-B
Wed 09:12:27 PM 42.1920 -72.6720 296° West 408 470 29,700 1,412 Climbing FlightAware ADS-B
Wed 09:13:07 PM 42.2240 -72.7630 295° West 404 465 31,000 1,909 Climbing FlightAware ADS-B
Wed 09:14:17 PM 42.2810 -72.9150 297° West 396 456 33,200 1,486 Climbing FlightAware ADS-B
Wed 09:14:52 PM 42.3140 -72.9870 302° West 395 455 33,600 282 Climbing FlightAware ADS-B
Wed 09:15:42 PM 42.3550 -73.0760 302° West 395 455 33,600  Level FlightAware ADS-B
Wed 09:16:22 PM 42.3880 -73.1470 302° West 395 455 33,600 4,200 Level FlightAware ADS-B
Wed 09:16:32 PM 42.3440 -73.2290 234° Southwest 392 451 37,100 4,909 Climbing FlightAware ADS-B
Wed 09:16:52 PM 42.3280 -73.1190 101° East 37,300 1,333 Climbing FlightAware ADS-B
Wed 09:17:17 PM 42.3610 -73.3430 281° West 398 458 38,100 1,800 Climbing FlightAware ADS-B
Wed 09:18:02 PM 42.3760 -73.4500 281° West 396 456 39,400 1,341 Climbing FlightAware ADS-B
Wed 09:18:42 PM 42.3890 -73.5480 280° West 401 461 40,000 450 Climbing FlightAware ADS-B
Wed 09:19:22 PM 42.4050 -73.6460 282° West 387 445 40,000  Level FlightAware ADS-B
Wed 09:20:17 PM 42.4240 -73.7620 283° West 389 448 40,000  Level FlightAware ADS-B
Wed 09:21:02 PM 42.4430 -73.8860 282° West 399 459 40,000  Level FlightAware ADS-B
Wed 09:21:37 PM 42.4560 -73.9700 282° West 400 460 40,000  Level FlightAware ADS-B
Wed 09:22:22 PM 42.4740 -74.0820 282° West 399 459 40,000  Level FlightAware ADS-B
Wed 09:23:02 PM 42.4890 -74.1800 282° West 400 460 40,000  Level FlightAware ADS-B
Wed 09:24:02 PM 42.5120 -74.3300 282° West 403 464 40,000  Level FlightAware ADS-B
Wed 09:24:42 PM 42.5270 -74.4270 282° West 405 466 40,000  Level FlightAware ADS-B
Wed 09:25:22 PM 42.5410 -74.5190 282° West 408 470 40,000  Level FlightAware ADS-B
Wed 09:26:07 PM 42.5570 -74.6290 281° West 410 472 40,000  Level FlightAware ADS-B
Wed 09:26:47 PM 42.5720 -74.7300 281° West 411 473 40,000  Level FlightAware ADS-B
Wed 09:27:32 PM 42.5900 -74.8460 282° West 409 471 40,000  Level FlightAware ADS-B
Wed 09:28:12 PM 42.6040 -74.9440 281° West 407 468 40,000  Level FlightAware ADS-B
Wed 09:28:57 PM 42.6210 -75.0590 281° West 405 466 40,000  Level FlightAware ADS-B
Wed 09:29:37 PM 42.6350 -75.1590 281° West 404 465 40,000  Level FlightAware ADS-B
Wed 09:30:17 PM 42.6500 -75.2580 282° West 404 465 40,000  Level FlightAware ADS-B
Wed 09:30:57 PM 42.6640 -75.3580 281° West 403 464 40,000  Level FlightAware ADS-B
Wed 09:31:42 PM 42.6800 -75.4670 281° West 403 464 40,000  Level FlightAware ADS-B
Wed 09:32:22 PM 42.6940 -75.5690 281° West 403 464 40,000  Level FlightAware ADS-B
Wed 09:33:07 PM 42.7100 -75.6810 281° West 402 463 40,000  Level FlightAware ADS-B
Wed 09:33:47 PM 42.7220 -75.7700 280° West 402 463 40,000  Level FlightAware ADS-B
Wed 09:34:32 PM 42.7390 -75.8920 281° West 402 463 40,000  Level FlightAware ADS-B
Wed 09:35:12 PM 42.7530 -75.9920 281° West 402 463 40,000  Level FlightAware ADS-B
Wed 09:35:52 PM 42.7660 -76.0910 280° West 402 463 40,000  Level FlightAware ADS-B
Wed 09:36:37 PM 42.7820 -76.2030 281° West 400 460 40,000  Level FlightAware ADS-B
Wed 09:37:17 PM 42.7930 -76.3020 279° West 403 464 40,000  Level FlightAware ADS-B
Wed 09:37:57 PM 42.7760 -76.3940 256° West 410 472 40,000  Level FlightAware ADS-B
Wed 09:38:42 PM 42.7550 -76.5090 256° West 409 471 40,000  Level FlightAware ADS-B
Wed 09:39:22 PM 42.7370 -76.6140 257° West 411 473 40,000  Level FlightAware ADS-B
Wed 09:40:07 PM 42.7130 -76.7260 254° West 415 478 40,000  Level FlightAware ADS-B
Wed 09:40:47 PM 42.6910 -76.8260 253° West 417 480 40,000  Level FlightAware ADS-B
Wed 09:41:32 PM 42.6660 -76.9370 253° West 419 482 40,000  Level FlightAware ADS-B
Wed 09:42:12 PM 42.6430 -77.0410 253° West 420 483 40,000  Level FlightAware ADS-B
Wed 09:42:52 PM 42.6200 -77.1410 253° West 420 483 40,000  Level FlightAware ADS-B
Wed 09:43:37 PM 42.5960 -77.2520 254° West 416 479 40,000  Level FlightAware ADS-B
Wed 09:44:17 PM 42.5740 -77.3480 253° West 413 475 40,000  Level FlightAware ADS-B
Wed 09:44:57 PM 42.5510 -77.4450 252° West 411 473 40,000  Level FlightAware ADS-B
Wed 09:45:42 PM 42.5250 -77.5600 253° West 411 473 40,000  Level FlightAware ADS-B
Wed 09:46:22 PM 42.5020 -77.6590 253° West 412 474 40,000  Level FlightAware ADS-B
Wed 09:47:07 PM 42.4770 -77.7720 253° West 412 474 40,000  Level FlightAware ADS-B
Wed 09:47:47 PM 42.4540 -77.8700 252° West 410 472 40,000  Level FlightAware ADS-B
Wed 09:48:32 PM 42.4290 -77.9780 253° West 411 473 40,000  Level FlightAware ADS-B
Wed 09:49:12 PM 42.4050 -78.0780 252° West 407 468 40,000  Level FlightAware ADS-B
Wed 09:49:52 PM 42.3830 -78.1740 253° West 404 465 40,000  Level FlightAware ADS-B
Wed 09:50:37 PM 42.3570 -78.2820 252° West 401 461 40,000  Level FlightAware ADS-B
Wed 09:51:17 PM 42.3350 -78.3750 252° West 398 458 40,000  Level FlightAware ADS-B
Wed 09:51:57 PM 42.3120 -78.4710 252° West 396 456 40,000  Level FlightAware ADS-B
Wed 09:52:42 PM 42.2870 -78.5770 252° West 396 456 40,000  Level FlightAware ADS-B
Wed 09:53:22 PM 42.2640 -78.6710 252° West 395 455 40,000  Level FlightAware ADS-B
Wed 09:54:07 PM 42.2390 -78.7760 252° West 394 453 40,000  Level FlightAware ADS-B
Wed 09:54:47 PM 42.2170 -78.8670 252° West 394 453 40,000  Level FlightAware ADS-B
Wed 09:55:27 PM 42.1930 -78.9630 251° West 394 453 40,000  Level FlightAware ADS-B
Wed 09:56:12 PM 42.1680 -79.0680 252° West 394 453 40,000  Level FlightAware ADS-B
Wed 09:56:52 PM 42.1450 -79.1620 252° West 396 456 40,000  Level FlightAware ADS-B
Wed 09:57:37 PM 42.1190 -79.2670 252° West 396 456 40,000  Level FlightAware ADS-B
Wed 09:58:17 PM 42.0960 -79.3580 251° West 396 456 40,000  Level FlightAware ADS-B
Wed 09:58:57 PM 42.0720 -79.4540 251° West 396 456 40,000  Level FlightAware ADS-B
Wed 09:59:42 PM 42.0460 -79.5590 252° West 396 456 40,000  Level FlightAware ADS-B
Wed 10:00:22 PM 42.0240 -79.6480 252° West 396 456 40,000  Level FlightAware ADS-B
Wed 10:01:02 PM 41.9990 -79.7460 251° West 396 456 40,000  Level FlightAware ADS-B
Wed 10:01:47 PM 41.9750 -79.8420 251° West 398 458 40,000  Level FlightAware ADS-B
Wed 10:02:27 PM 41.9480 -79.9450 251° West 399 459 40,000  Level FlightAware ADS-B
Wed 10:03:12 PM 41.9220 -80.0500 252° West 399 459 40,000  Level FlightAware ADS-B
Wed 10:03:52 PM 41.8980 -80.1440 251° West 399 459 40,000  Level FlightAware ADS-B
Wed 10:04:37 PM 41.8720 -80.2440 251° West 398 458 40,000  Level FlightAware ADS-B
Wed 10:05:17 PM 41.8470 -80.3420 251° West 398 458 40,000  Level FlightAware ADS-B
Wed 10:05:57 PM 41.8220 -80.4350 250° West 396 456 40,000  Level FlightAware ADS-B
Wed 10:06:42 PM 41.7950 -80.5420 251° West 394 453 40,000  Level FlightAware ADS-B
Wed 10:07:22 PM 41.7710 -80.6320 250° West 392 451 40,000  Level FlightAware ADS-B
Wed 10:08:07 PM 41.7460 -80.7280 251° West 392 451 40,000  Level FlightAware ADS-B
Wed 10:08:47 PM 41.7200 -80.8260 250° West 390 449 40,000  Level FlightAware ADS-B
Wed 10:09:27 PM 41.6960 -80.9170 251° West 390 449 40,000  Level FlightAware ADS-B
Wed 10:10:12 PM 41.6680 -81.0240 251° West 392 451 40,000  Level FlightAware ADS-B
Wed 10:10:52 PM 41.6430 -81.1180 250° West 392 451 40,000  Level FlightAware ADS-B
Wed 10:11:37 PM 41.6150 -81.2200 250° West 391 450 40,000  Level FlightAware ADS-B
Wed 10:12:17 PM 41.5900 -81.3140 250° West 391 450 40,000  Level FlightAware ADS-B
Wed 10:12:57 PM 41.5670 -81.4000 250° West 390 449 40,000  Level FlightAware ADS-B
Wed 10:13:42 PM 41.5380 -81.5060 250° West 390 449 40,000  Level FlightAware ADS-B
Wed 10:14:22 PM 41.5140 -81.5950 250° West 390 449 40,000  Level FlightAware ADS-B
Wed 10:15:07 PM 41.4870 -81.6940 250° West 390 449 40,000  Level FlightAware ADS-B
Wed 10:15:47 PM 41.4620 -81.7870 250° West 390 449 40,000  Level FlightAware ADS-B
Wed 10:16:27 PM 41.4360 -81.8800 250° West 392 451 40,000  Level FlightAware ADS-B
Wed 10:17:12 PM 41.4100 -81.9730 250° West 394 453 40,000  Level FlightAware ADS-B
Wed 10:17:52 PM 41.3830 -82.0730 250° West 394 453 40,000  Level FlightAware ADS-B
Wed 10:18:32 PM 41.3590 -82.1620 250° West 393 452 40,000  Level FlightAware ADS-B
Wed 10:19:17 PM 41.3450 -82.2710 260° West 393 452 40,000  Level FlightAware ADS-B
Wed 10:19:57 PM 41.3350 -82.3650 262° West 393 452 40,000  Level FlightAware ADS-B
Wed 10:20:37 PM 41.3250 -82.4530 261° West 393 452 40,000  Level FlightAware ADS-B
Wed 10:21:22 PM 41.3120 -82.5660 261° West 394 453 40,000  Level FlightAware ADS-B
Wed 10:22:02 PM 41.3010 -82.6620 261° West 393 452 40,000  Level FlightAware ADS-B
Wed 10:22:47 PM 41.2890 -82.7690 262° West 391 450 40,000  Level FlightAware ADS-B
Wed 10:23:27 PM 41.2770 -82.8640 260° West 390 449 40,000  Level FlightAware ADS-B
Wed 10:24:12 PM 41.2650 -82.9700 261° West 390 449 40,000  Level FlightAware ADS-B
Wed 10:24:52 PM 41.2530 -83.0680 261° West 391 450 40,000 -600 Level FlightAware ADS-B
Wed 10:25:32 PM 41.2420 -83.1570 261° West 385 443 39,200 -2,047 Descending FlightAware ADS-B
Wed 10:26:17 PM 41.2300 -83.2660 262° West 394 453 37,100 -2,965 Descending FlightAware ADS-B
Wed 10:26:57 PM 41.2180 -83.3630 261° West 407 468 35,000 -3,529 Descending FlightAware ADS-B
Wed 10:27:42 PM 41.2030 -83.4800 260° West 430 495 32,100 -4,094 Descending FlightAware ADS-B
Wed 10:28:22 PM 41.1900 -83.5860 261° West 449 517 29,200 -4,500 Descending FlightAware ADS-B
Wed 10:29:02 PM 41.1760 -83.6970 261° West 456 525 26,100 -4,094 Descending FlightAware ADS-B
Wed 10:29:47 PM 41.1610 -83.8140 260° West 426 490 23,400 -3,459 Descending FlightAware ADS-B
Wed 10:30:27 PM 41.1490 -83.9150 261° West 396 456 21,200 -3,600 Descending FlightAware ADS-B
Wed 10:31:07 PM 41.1370 -84.0080 260° West 385 443 18,600 -3,247 Descending FlightAware ADS-B
Wed 10:31:52 PM 41.1230 -84.1120 260° West 376 433 16,600 -2,753 Descending FlightAware ADS-B
Wed 10:32:32 PM 41.1120 -84.2020 261° West 368 423 14,700 -2,753 Descending FlightAware ADS-B
Wed 10:33:17 PM 41.0990 -84.3010 260° West 362 417 12,700 -2,118 Descending FlightAware ADS-B
Wed 10:33:57 PM 41.0870 -84.3880 260° West 336 387 11,700 -1,125 Descending FlightAware ADS-B
Wed 10:34:37 PM 41.0780 -84.4630 261° West 301 346 11,200 -565 Descending FlightAware ADS-B
Wed 10:35:22 PM 41.0670 -84.5400 259° West 271 312 10,900 -225 Descending FlightAware ADS-B
Wed 10:35:57 PM 41.0600 -84.5970 261° West 266 306 10,900 -635 Level FlightAware ADS-B
Wed 10:36:47 PM 41.0490 -84.6770 260° West 263 303 10,000 -1,040 Descending FlightAware ADS-B
Wed 10:37:12 PM 41.0400 -84.7120 251° West 257 296 9,600 -1,080 Descending FlightAware ADS-B
Wed 10:37:37 PM 41.0250 -84.7460 240° Southwest 244 281 9,100 -873 Descending FlightAware ADS-B
Wed 10:38:07 PM 41.0080 -84.7800 236° Southwest 244 281 8,800 -300 Descending FlightAware ADS-B
Wed 10:38:37 PM 40.9920 -84.8120 236° Southwest 244 281 8,800  Level FlightAware ADS-B
Wed 10:38:57 PM 40.9820 -84.8330 238° Southwest 244 281 8,800  Level FlightAware ADS-B
Wed 10:39:17 PM 40.9710 -84.8550 236° Southwest 244 281 8,800 -2,769 Level FlightAware ADS-B
Wed 10:39:49 PM 40.9578 -84.8958 236° Southwest 241 277 6,400 -1,806 Descending Chicago Center
Wed 10:40:50 PM 40.9350 -84.9836 251° West 226 260 6,000 -393 Descending Chicago Center
Wed 10:41:51 PM 40.9169 -85.0511 251° West 209 241 5,600 -934 Descending Chicago Center
Wed 10:42:52 PM 40.8983 -85.1228 251° West 205 236 4,100 -1,475 Descending Chicago Center
Wed 10:43:53 PM 40.8631 -85.1822 232° Southwest 208 239 2,600 -738 Descending Chicago Center
Wed 10:44:54 PM 40.8258 -85.2422 231° Southwest 212 244 2,600  Level Chicago Center
Wed 10:45:55 PM 40.7911 -85.2969 230° Southwest 206 237 2,600  Level Chicago Center

Login

Don't have an account? Register now (free) for customized features, flight alerts, and more!